Alamance, North Carolina
Current Conditions -  °F | °C
As of 11:54 PM on Sunday 19 Oct 2014 (Local Time) from KBUY Reporting Station
Clear Clear  
Wind Chill: 44°   Ceiling: Unl
Heat Index: 44°   Visibility: 10mi
Dew Point: 40°   Wind: 0mph
Humidity: 85%   Direction: NA
Pressure: 30.14"   Gusts: NA
Location:  36.04°N, 79.49°W
Report Text: KBUY 200354Z AUTO 00000KT 10SM CLR 07/04 A3014 RMK AO2 SLP205 T00670044
Loading
Personal Weather Stations






























Interactive Weather Map
Tropical Storm Tracking
New forecast layout! Learn more

10-Day Weather Forecast

Advertisements
Track Severe Weather on mobile